createdAt,value
2018-01-25T00:00:27.171Z,3.7
2018-01-25T00:01:28.824Z,4.0
2018-01-25T00:02:30.472Z,4.5
2018-01-25T00:03:32.130Z,5.5
2018-01-25T00:04:33.789Z,4.0
2018-01-25T00:05:35.445Z,3.6
2018-01-25T00:06:37.096Z,4.0
2018-01-25T00:07:38.750Z,5.0
2018-01-25T00:08:40.405Z,3.5
2018-01-25T00:09:42.049Z,3.5
2018-01-25T00:10:43.703Z,3.3
2018-01-25T00:11:45.357Z,3.6
2018-01-25T00:12:47.008Z,4.3
2018-01-25T00:13:48.661Z,3.8
2018-01-25T00:14:50.307Z,3.9
2018-01-25T00:15:51.958Z,4.1
2018-01-25T00:16:53.607Z,3.7
2018-01-25T00:17:55.257Z,3.0
2018-01-25T00:18:56.922Z,3.5
2018-01-25T00:19:58.565Z,3.1
2018-01-25T00:21:00.227Z,3.7
2018-01-25T00:22:01.880Z,2.8
2018-01-25T00:23:03.525Z,2.3
2018-01-25T00:24:05.178Z,2.5
2018-01-25T00:25:06.831Z,2.9
2018-01-25T00:26:08.476Z,3.1
2018-01-25T00:27:10.131Z,2.5
2018-01-25T00:28:11.788Z,2.8
2018-01-25T00:29:13.572Z,2.3
2018-01-25T00:30:15.078Z,2.5
2018-01-25T00:31:16.741Z,2.3
2018-01-25T00:32:18.390Z,2.6
2018-01-25T00:33:20.047Z,2.4
2018-01-25T00:34:21.690Z,2.5
2018-01-25T00:35:23.358Z,2.5
2018-01-25T00:36:25.004Z,2.8
2018-01-25T00:37:26.664Z,2.4
2018-01-25T00:38:28.318Z,3.6
2018-01-25T00:39:29.962Z,3.0
2018-01-25T00:40:31.615Z,2.5
2018-01-25T00:41:33.258Z,2.3
2018-01-25T00:42:34.915Z,2.7
2018-01-25T00:43:36.569Z,2.9
2018-01-25T00:44:38.219Z,2.6
2018-01-25T00:45:39.868Z,2.1
2018-01-25T00:46:41.524Z,2.6
2018-01-25T00:47:43.172Z,2.0
2018-01-25T00:48:44.829Z,1.9
2018-01-25T00:49:46.481Z,2.5
2018-01-25T00:50:48.138Z,2.4
2018-01-25T00:51:49.796Z,2.6
2018-01-25T00:52:51.443Z,2.3
2018-01-25T00:53:53.094Z,2.1
2018-01-25T00:54:54.750Z,2.6
2018-01-25T00:55:56.405Z,2.0
2018-01-25T00:56:58.056Z,2.1
2018-01-25T00:57:59.715Z,2.1
2018-01-25T00:59:01.358Z,2.3
2018-01-25T01:00:03.024Z,2.3
2018-01-25T01:01:04.666Z,2.3
2018-01-25T01:02:06.312Z,2.1
2018-01-25T01:03:07.969Z,2.3
2018-01-25T01:04:09.621Z,2.3
2018-01-25T01:05:11.287Z,2.4
2018-01-25T01:06:12.929Z,2.3
2018-01-25T01:07:14.575Z,2.4
2018-01-25T01:08:16.228Z,2.2
2018-01-25T01:09:17.881Z,2.2
2018-01-25T01:10:19.524Z,2.2
2018-01-25T01:11:21.178Z,2.2
2018-01-25T01:12:22.831Z,2.3
2018-01-25T01:13:24.483Z,2.0
2018-01-25T01:14:26.127Z,1.8
2018-01-25T01:15:27.879Z,2.4
2018-01-25T01:16:29.524Z,1.8
2018-01-25T01:17:31.201Z,1.8
2018-01-25T01:18:32.849Z,2.1
2018-01-25T01:19:34.509Z,1.9
2018-01-25T01:20:36.162Z,2.0
2018-01-25T01:21:37.802Z,2.1
2018-01-25T01:22:39.460Z,1.9
2018-01-25T01:23:41.103Z,3.4
2018-01-25T01:24:42.791Z,3.0
2018-01-25T01:25:44.418Z,2.3
2018-01-25T01:26:46.056Z,2.1
2018-01-25T01:27:47.707Z,1.7
2018-01-25T01:28:49.360Z,2.0
2018-01-25T01:29:51.013Z,2.1
2018-01-25T01:30:52.664Z,2.0
2018-01-25T01:31:54.324Z,2.1
2018-01-25T01:32:55.985Z,2.1
2018-01-25T01:33:57.635Z,2.0
2018-01-25T01:34:59.285Z,2.3
2018-01-25T01:36:00.926Z,2.1
2018-01-25T01:37:02.586Z,2.1
2018-01-25T01:38:04.235Z,2.5
2018-01-25T01:39:05.898Z,2.1
2018-01-25T01:40:07.561Z,2.3
2018-01-25T01:41:09.199Z,2.2
2018-01-25T01:42:10.847Z,1.9
2018-01-25T01:43:12.502Z,2.0
2018-01-25T01:44:14.145Z,2.0
2018-01-25T01:45:15.787Z,2.4
2018-01-25T01:46:17.444Z,2.1
2018-01-25T01:47:19.089Z,2.5
2018-01-25T01:48:20.739Z,2.2
2018-01-25T01:49:22.387Z,2.0
2018-01-25T01:50:24.034Z,1.9
2018-01-25T01:51:25.686Z,2.2
2018-01-25T01:52:27.342Z,2.0
2018-01-25T01:53:28.998Z,2.1
2018-01-25T01:54:30.641Z,2.3
2018-01-25T01:55:32.282Z,1.9
2018-01-25T01:56:34.020Z,1.8
2018-01-25T01:57:35.671Z,2.0
2018-01-25T01:58:37.324Z,2.1
2018-01-25T01:59:38.971Z,1.9
2018-01-25T02:00:40.617Z,1.9
2018-01-25T02:01:42.271Z,2.1
2018-01-25T02:02:43.917Z,1.9
2018-01-25T02:03:45.577Z,2.2
2018-01-25T02:04:47.227Z,2.2
2018-01-25T02:05:48.869Z,2.1
2018-01-25T02:06:50.518Z,2.3
2018-01-25T02:07:52.162Z,2.0
2018-01-25T02:08:53.800Z,2.4
2018-01-25T02:09:55.457Z,1.9
2018-01-25T02:10:57.167Z,1.8
2018-01-25T02:11:58.817Z,1.8
2018-01-25T02:13:00.469Z,1.9
2018-01-25T02:14:02.120Z,1.7
2018-01-25T02:15:03.763Z,1.9
2018-01-25T02:16:05.406Z,1.8
2018-01-25T02:17:07.064Z,2.0
2018-01-25T02:18:08.713Z,2.2
2018-01-25T02:19:10.356Z,2.0
2018-01-25T02:20:12.014Z,2.1
2018-01-25T02:21:13.679Z,2.0
2018-01-25T02:22:15.370Z,1.7
2018-01-25T02:23:17.024Z,1.9
2018-01-25T02:24:18.667Z,2.1
2018-01-25T02:25:20.326Z,2.3
2018-01-25T02:26:21.973Z,2.4
2018-01-25T02:27:23.614Z,2.1
2018-01-25T02:28:25.266Z,2.3
2018-01-25T02:29:26.904Z,2.3
2018-01-25T02:30:28.557Z,2.1
2018-01-25T02:31:30.200Z,2.0
2018-01-25T02:32:31.845Z,1.9
2018-01-25T02:33:33.497Z,2.2
2018-01-25T02:34:35.155Z,2.4
2018-01-25T02:35:36.825Z,1.9
2018-01-25T02:36:38.459Z,2.4
2018-01-25T02:37:40.114Z,1.9
2018-01-25T02:38:41.760Z,2.2
2018-01-25T02:39:43.400Z,1.9
2018-01-25T02:40:45.049Z,2.6
2018-01-25T02:41:46.691Z,2.0
2018-01-25T02:42:48.340Z,2.3
2018-01-25T02:43:50.005Z,1.9
2018-01-25T02:44:51.650Z,2.2
2018-01-25T02:45:53.320Z,2.5
2018-01-25T02:46:54.972Z,2.1
2018-01-25T02:47:56.614Z,2.6
2018-01-25T02:48:58.259Z,2.1
2018-01-25T02:49:59.971Z,2.4
2018-01-25T02:51:01.631Z,2.4
2018-01-25T02:52:03.270Z,2.4
2018-01-25T02:53:04.920Z,2.3
2018-01-25T02:54:06.559Z,2.3
2018-01-25T02:55:08.210Z,2.7
2018-01-25T03:01:18.438Z,2.0
2018-01-25T03:02:20.075Z,2.3
2018-01-25T03:03:21.718Z,2.3
2018-01-25T03:04:23.370Z,2.2
2018-01-25T03:05:25.007Z,2.4
2018-01-25T03:06:26.651Z,2.5
2018-01-25T03:07:28.317Z,2.5
2018-01-25T03:08:29.970Z,2.8
2018-01-25T03:09:31.619Z,2.8
2018-01-25T03:10:33.256Z,2.8
2018-01-25T03:11:34.908Z,3.1
2018-01-25T03:12:36.549Z,2.4
2018-01-25T03:13:38.198Z,2.7
2018-01-25T03:14:39.853Z,3.6
2018-01-25T03:15:41.511Z,3.1
2018-01-25T03:16:43.174Z,2.7
2018-01-25T03:17:44.822Z,2.6
2018-01-25T03:18:46.468Z,2.5
2018-01-25T03:19:48.110Z,2.7
2018-01-25T03:20:49.762Z,2.7
2018-01-25T03:21:51.405Z,2.7
2018-01-25T03:22:53.050Z,2.6
2018-01-25T03:23:54.755Z,2.9
2018-01-25T03:24:56.344Z,2.8
2018-01-25T03:25:57.990Z,2.5
2018-01-25T03:26:59.650Z,2.9
2018-01-25T03:28:01.298Z,3.6
2018-01-25T03:29:02.939Z,3.0
2018-01-25T03:30:04.590Z,3.2
2018-01-25T03:31:06.237Z,2.6
2018-01-25T03:32:07.888Z,2.5
2018-01-25T03:33:09.532Z,2.2
2018-01-25T03:34:11.181Z,2.6
2018-01-25T03:35:12.828Z,3.0
2018-01-25T03:36:14.479Z,2.7
2018-01-25T03:37:16.130Z,3.0
2018-01-25T03:38:17.778Z,2.9
2018-01-25T03:39:19.434Z,3.3
2018-01-25T03:40:21.104Z,3.2
2018-01-25T03:41:22.772Z,3.2
2018-01-25T03:42:24.428Z,3.8
2018-01-25T03:43:26.079Z,3.0
2018-01-25T03:44:27.723Z,2.5
2018-01-25T03:45:29.372Z,2.5
2018-01-25T03:46:31.018Z,2.4
2018-01-25T03:47:32.672Z,2.5
2018-01-25T03:48:34.332Z,2.0
2018-01-25T03:49:35.991Z,2.5
2018-01-25T03:50:37.648Z,2.4
2018-01-25T03:51:39.296Z,2.0
2018-01-25T03:52:40.947Z,2.3
2018-01-25T03:53:42.606Z,1.6
2018-01-25T03:54:44.247Z,1.8
2018-01-25T03:55:45.895Z,1.8
2018-01-25T03:56:47.553Z,2.0
2018-01-25T03:57:49.197Z,2.2
2018-01-25T03:58:50.851Z,1.8
2018-01-25T03:59:52.498Z,1.8
2018-01-25T04:00:54.146Z,1.6
2018-01-25T04:01:55.799Z,2.2
2018-01-25T04:02:57.442Z,1.8
2018-01-25T04:03:59.096Z,1.9
2018-01-25T04:05:00.749Z,1.6
2018-01-25T04:06:02.395Z,1.6
2018-01-25T04:07:04.048Z,1.8
2018-01-25T04:08:05.688Z,1.5
2018-01-25T04:09:07.338Z,1.7
2018-01-25T04:10:08.990Z,1.6
2018-01-25T04:11:10.637Z,1.6
2018-01-25T04:12:12.278Z,1.6
2018-01-25T04:13:13.931Z,1.6
2018-01-25T04:14:15.571Z,1.5
2018-01-25T04:15:17.219Z,1.4
2018-01-25T04:16:18.873Z,1.3
2018-01-25T04:17:20.527Z,1.5
2018-01-25T04:18:22.179Z,1.5
2018-01-25T04:19:23.827Z,1.6
2018-01-25T04:20:25.474Z,1.8
2018-01-25T04:21:27.119Z,1.6
2018-01-25T04:22:28.780Z,2.0
2018-01-25T04:23:30.429Z,1.5
2018-01-25T04:24:32.075Z,1.4
2018-01-25T04:25:33.721Z,1.5
2018-01-25T04:26:35.380Z,1.6
2018-01-25T04:27:37.032Z,1.8
2018-01-25T04:28:38.683Z,1.6
2018-01-25T04:29:40.341Z,1.7
2018-01-25T04:30:42.005Z,1.5
2018-01-25T04:31:43.636Z,1.4
2018-01-25T04:32:45.285Z,1.5
2018-01-25T04:33:46.931Z,1.6
2018-01-25T04:34:48.593Z,1.8
2018-01-25T04:35:50.234Z,1.6
2018-01-25T04:36:51.903Z,1.6
2018-01-25T04:37:53.555Z,1.6
2018-01-25T04:38:55.200Z,1.3
2018-01-25T04:39:56.846Z,1.5
2018-01-25T04:40:58.488Z,1.4
2018-01-25T04:42:00.142Z,1.5
2018-01-25T04:43:01.796Z,1.5
2018-01-25T04:44:03.441Z,1.3
2018-01-25T04:45:05.098Z,1.4
2018-01-25T04:46:06.751Z,1.7
2018-01-25T04:47:08.399Z,1.3
2018-01-25T04:48:10.083Z,1.3
2018-01-25T04:49:11.701Z,1.5
2018-01-25T04:50:13.342Z,1.4
2018-01-25T04:51:14.993Z,1.5
2018-01-25T04:52:16.640Z,1.4
2018-01-25T04:53:18.285Z,1.6
2018-01-25T04:54:19.933Z,1.6
2018-01-25T04:55:21.587Z,1.6
2018-01-25T04:56:23.239Z,1.6
2018-01-25T04:57:24.892Z,1.6
2018-01-25T04:58:26.541Z,1.6
2018-01-25T04:59:28.188Z,1.8
2018-01-25T05:00:29.833Z,1.7
2018-01-25T05:01:31.477Z,1.5
2018-01-25T05:02:33.125Z,1.7
2018-01-25T05:03:34.779Z,1.4
2018-01-25T05:04:36.424Z,1.5
2018-01-25T05:05:38.073Z,1.6
2018-01-25T05:06:39.725Z,1.8
2018-01-25T05:07:41.400Z,1.6
2018-01-25T05:08:43.049Z,1.8
2018-01-25T05:09:44.703Z,1.5
2018-01-25T05:10:46.349Z,1.6
2018-01-25T05:11:47.998Z,1.8
2018-01-25T05:12:49.653Z,1.7
2018-01-25T05:13:51.296Z,1.7
2018-01-25T05:14:53.486Z,1.7
2018-01-25T05:15:55.135Z,1.5
2018-01-25T05:16:56.802Z,1.6
2018-01-25T05:17:58.446Z,1.7
2018-01-25T05:19:00.101Z,1.7
2018-01-25T05:20:01.750Z,1.4
2018-01-25T05:21:03.393Z,1.2
2018-01-25T05:22:05.044Z,1.3
2018-01-25T05:23:06.694Z,1.4
2018-01-25T05:24:08.338Z,1.2
2018-01-25T05:25:10.001Z,1.3
2018-01-25T05:26:11.645Z,1.2
2018-01-25T05:27:13.302Z,1.2
2018-01-25T05:28:14.946Z,1.3
2018-01-25T05:29:16.596Z,1.4
2018-01-25T05:30:18.571Z,1.4
2018-01-25T05:31:20.218Z,1.5
2018-01-25T05:32:21.866Z,0.9
2018-01-25T05:33:23.575Z,0.8
2018-01-25T05:34:25.226Z,1.0
2018-01-25T05:35:26.871Z,1.2
2018-01-25T05:36:28.512Z,1.0
2018-01-25T05:37:30.163Z,0.9
2018-01-25T05:38:31.819Z,0.9
2018-01-25T05:39:33.478Z,0.9
2018-01-25T05:40:35.230Z,1.1
2018-01-25T05:41:36.868Z,1.2
2018-01-25T05:42:38.524Z,1.2
2018-01-25T05:43:40.166Z,1.1
2018-01-25T05:44:41.818Z,1.1
2018-01-25T05:45:43.461Z,1.3
2018-01-25T05:46:45.110Z,1.4
2018-01-25T05:47:46.754Z,1.1
2018-01-25T05:48:48.421Z,1.0
2018-01-25T05:49:50.075Z,1.6
2018-01-25T05:50:51.771Z,1.3
2018-01-25T05:51:53.413Z,1.2
2018-01-25T05:52:55.063Z,1.5
2018-01-25T05:53:56.710Z,1.5
2018-01-25T05:54:58.360Z,1.6
2018-01-25T05:56:00.015Z,1.5
2018-01-25T05:57:01.657Z,1.5
2018-01-25T05:58:03.313Z,1.5
2018-01-25T05:59:04.961Z,1.7
2018-01-25T06:00:06.618Z,1.5
2018-01-25T06:01:08.274Z,1.9
2018-01-25T06:02:09.918Z,1.8
2018-01-25T06:03:11.571Z,1.6
2018-01-25T06:04:13.219Z,1.9
2018-01-25T06:05:14.873Z,1.8
2018-01-25T06:06:16.532Z,1.7
2018-01-25T06:07:18.175Z,1.8
2018-01-25T06:08:19.826Z,2.0
2018-01-25T06:09:21.642Z,2.1
2018-01-25T06:10:23.905Z,1.8
2018-01-25T06:11:25.557Z,1.9
2018-01-25T06:12:27.288Z,1.9
2018-01-25T06:13:28.951Z,2.4
2018-01-25T06:14:30.597Z,3.4
2018-01-25T06:15:32.250Z,3.2
2018-01-25T06:16:33.910Z,2.4
2018-01-25T06:17:35.561Z,2.0
2018-01-25T06:18:37.245Z,2.2
2018-01-25T06:19:38.865Z,2.2
2018-01-25T06:20:40.511Z,2.2
2018-01-25T06:21:42.174Z,3.7
2018-01-25T06:22:43.820Z,4.0
2018-01-25T06:23:45.468Z,6.0
2018-01-25T06:24:47.115Z,6.6
2018-01-25T06:25:48.763Z,3.8
2018-01-25T06:26:50.424Z,5.8
2018-01-25T06:27:52.079Z,6.4
2018-01-25T06:28:53.714Z,6.2
2018-01-25T06:29:55.362Z,5.6
2018-01-25T06:30:57.014Z,5.9
2018-01-25T06:31:58.650Z,5.6
2018-01-25T06:33:00.309Z,6.1
2018-01-25T06:34:01.958Z,6.4
2018-01-25T06:35:03.597Z,5.7
2018-01-25T06:36:05.246Z,6.0
2018-01-25T06:37:06.920Z,8.0
2018-01-25T06:38:08.576Z,7.0
2018-01-25T06:39:10.228Z,3.9
2018-01-25T06:40:11.871Z,2.6
2018-01-25T06:41:13.506Z,2.4
2018-01-25T06:42:15.154Z,4.2
2018-01-25T06:43:16.808Z,3.6
2018-01-25T06:44:18.464Z,3.2
2018-01-25T06:45:20.124Z,2.9
2018-01-25T06:46:21.765Z,2.4
2018-01-25T06:47:23.443Z,1.7
2018-01-25T06:48:25.088Z,2.0
2018-01-25T06:49:26.741Z,2.3
2018-01-25T06:50:28.384Z,2.1
2018-01-25T06:51:30.031Z,1.9
2018-01-25T06:52:31.667Z,2.4
2018-01-25T06:53:33.314Z,2.4
2018-01-25T06:54:34.968Z,2.4
2018-01-25T07:00:57.332Z,3.9
2018-01-25T07:01:58.983Z,4.5
2018-01-25T07:03:00.658Z,5.2
2018-01-25T07:04:02.298Z,5.6
2018-01-25T07:05:03.955Z,8.2
2018-01-25T07:06:05.622Z,23.0
2018-01-25T07:07:07.266Z,16.3
2018-01-25T07:08:09.675Z,21.5
2018-01-25T07:09:11.369Z,18.0
2018-01-25T07:10:12.986Z,14.7
2018-01-25T07:11:14.643Z,6.9
2018-01-25T07:12:16.292Z,8.1
2018-01-25T07:13:21.633Z,10.7
2018-01-25T07:14:23.167Z,14.4
2018-01-25T07:15:24.819Z,17.7
2018-01-25T07:16:26.462Z,29.6
2018-01-25T07:17:28.115Z,19.7
2018-01-25T07:18:29.766Z,57.6
2018-01-25T07:19:31.419Z,33.7
2018-01-25T07:20:33.086Z,39.5
2018-01-25T07:21:34.759Z,37.9
2018-01-25T07:22:36.423Z,26.9
2018-01-25T07:23:38.098Z,26.0
2018-01-25T07:24:39.759Z,24.8
2018-01-25T07:25:41.420Z,25.0
2018-01-25T07:26:43.064Z,25.9
2018-01-25T07:27:44.711Z,20.1
2018-01-25T07:28:46.364Z,13.3
2018-01-25T07:29:48.031Z,12.1
2018-01-25T07:30:49.675Z,9.7
2018-01-25T07:31:51.337Z,7.8
2018-01-25T07:32:52.997Z,8.4
2018-01-25T07:33:54.648Z,9.1
2018-01-25T07:34:56.303Z,8.6
2018-01-25T07:35:57.946Z,7.3
2018-01-25T07:36:59.604Z,8.6
2018-01-25T07:38:01.259Z,8.0
2018-01-25T07:39:02.910Z,7.7
2018-01-25T07:40:04.635Z,8.1
2018-01-25T07:41:06.292Z,7.9
2018-01-25T07:42:07.952Z,7.3
2018-01-25T07:43:09.616Z,7.2
2018-01-25T07:44:11.295Z,7.6
2018-01-25T07:45:12.960Z,11.0
2018-01-25T07:46:14.614Z,16.2
2018-01-25T07:47:16.276Z,26.7
2018-01-25T07:48:17.924Z,26.5
2018-01-25T07:49:19.574Z,25.1
2018-01-25T07:50:21.229Z,23.3
2018-01-25T07:51:22.888Z,50.4
2018-01-25T07:52:24.538Z,50.2
2018-01-25T07:53:26.193Z,50.3
2018-01-25T07:54:27.840Z,85.4
2018-01-25T07:55:29.495Z,61.7
2018-01-25T07:56:31.154Z,43.0
2018-01-25T07:57:32.804Z,27.0
2018-01-25T07:58:34.458Z,13.4
2018-01-25T07:59:36.120Z,10.1
2018-01-25T08:00:37.828Z,8.5
2018-01-25T08:01:39.436Z,11.7
2018-01-25T08:02:41.091Z,14.9
2018-01-25T08:03:42.748Z,23.3
2018-01-25T08:04:44.403Z,34.0
2018-01-25T08:05:46.066Z,15.5
2018-01-25T08:06:47.714Z,14.6
2018-01-25T08:07:49.404Z,8.5
2018-01-25T08:08:51.059Z,6.2
2018-01-25T08:09:52.710Z,13.4
2018-01-25T08:10:54.368Z,33.2
2018-01-25T08:11:56.024Z,17.9
2018-01-25T08:12:57.680Z,13.7
2018-01-25T08:13:59.343Z,20.1
2018-01-25T08:15:00.999Z,25.9
2018-01-25T08:16:02.653Z,20.4
2018-01-25T08:17:04.313Z,20.7
2018-01-25T08:18:05.958Z,9.7
2018-01-25T08:19:07.616Z,12.2
2018-01-25T08:20:09.442Z,9.1
2018-01-25T08:21:11.098Z,13.9
2018-01-25T08:22:12.750Z,14.2
2018-01-25T08:23:14.405Z,22.3
2018-01-25T08:24:16.063Z,12.8
2018-01-25T08:25:17.721Z,6.7
2018-01-25T08:26:19.373Z,5.8
2018-01-25T08:27:21.030Z,3.6
2018-01-25T08:28:22.688Z,3.4
2018-01-25T08:29:24.401Z,10.2
2018-01-25T08:30:26.054Z,9.3
2018-01-25T08:31:27.707Z,4.8
2018-01-25T08:32:29.362Z,4.4
2018-01-25T08:33:31.025Z,6.4
2018-01-25T08:34:32.679Z,11.3
2018-01-25T08:35:34.336Z,9.6
2018-01-25T08:36:35.997Z,7.5
2018-01-25T08:37:37.653Z,9.2
2018-01-25T08:38:39.315Z,7.0
2018-01-25T08:39:40.961Z,8.2
2018-01-25T08:40:42.630Z,14.9
2018-01-25T08:41:44.283Z,11.9
2018-01-25T08:42:45.962Z,12.0
2018-01-25T08:43:47.679Z,8.7
2018-01-25T08:44:49.331Z,12.8
2018-01-25T08:45:50.982Z,5.9
2018-01-25T08:46:52.691Z,11.4
2018-01-25T08:47:54.360Z,15.2
2018-01-25T08:48:56.024Z,10.2
2018-01-25T08:49:57.685Z,5.3
2018-01-25T08:50:59.331Z,4.6
2018-01-25T08:52:00.992Z,3.4
2018-01-25T08:53:02.648Z,2.8
2018-01-25T08:54:04.384Z,2.7
2018-01-25T08:55:06.002Z,3.4
2018-01-25T08:56:07.662Z,3.8
2018-01-25T08:57:10.171Z,14.4
2018-01-25T08:58:11.834Z,15.2
2018-01-25T08:59:13.490Z,7.7
2018-01-25T09:00:15.171Z,8.7
2018-01-25T09:01:16.788Z,9.0
2018-01-25T09:02:18.470Z,7.1
2018-01-25T09:03:20.124Z,8.7
2018-01-25T09:04:21.777Z,7.4
2018-01-25T09:05:33.254Z,5.7
2018-01-25T09:06:37.335Z,5.1
2018-01-25T09:07:40.165Z,3.8
2018-01-25T09:08:42.057Z,3.8
2018-01-25T09:09:43.482Z,3.4
2018-01-25T09:10:45.143Z,2.6
2018-01-25T09:11:48.095Z,2.1
2018-01-25T09:12:49.753Z,2.5
2018-01-25T09:13:51.899Z,3.7
2018-01-25T09:14:53.564Z,5.2
2018-01-25T09:15:55.223Z,4.4
2018-01-25T09:16:57.694Z,10.1
2018-01-25T09:18:00.068Z,5.2
2018-01-25T09:19:01.723Z,6.0
2018-01-25T09:20:03.560Z,4.6
2018-01-25T09:21:05.218Z,9.8
2018-01-25T09:22:07.238Z,10.9
2018-01-25T09:23:08.899Z,7.9
2018-01-25T09:24:10.565Z,7.1
2018-01-25T09:25:12.226Z,4.5
2018-01-25T09:26:13.893Z,8.9
2018-01-25T09:27:15.540Z,8.3
2018-01-25T09:28:17.588Z,9.1
2018-01-25T09:29:19.246Z,6.4
2018-01-25T09:30:20.910Z,7.2
2018-01-25T09:31:22.557Z,9.1
2018-01-25T09:32:24.263Z,9.6
2018-01-25T09:33:25.893Z,7.8
2018-01-25T09:34:27.569Z,8.0
2018-01-25T09:35:29.225Z,6.3
2018-01-25T09:36:30.883Z,8.1
2018-01-25T09:37:32.554Z,5.8
2018-01-25T09:38:34.207Z,4.8
2018-01-25T09:39:35.866Z,5.5
2018-01-25T09:40:37.514Z,4.8
2018-01-25T09:41:39.174Z,5.0
2018-01-25T09:42:40.832Z,5.0
2018-01-25T09:43:42.508Z,6.9
2018-01-25T09:44:45.913Z,7.6
2018-01-25T09:45:47.545Z,10.3
2018-01-25T09:46:49.197Z,15.0
2018-01-25T09:47:50.854Z,19.5
2018-01-25T09:48:52.524Z,10.1
2018-01-25T09:49:54.176Z,6.9
2018-01-25T09:50:55.834Z,7.7
2018-01-25T09:51:57.482Z,5.7
2018-01-25T09:52:59.178Z,6.5
2018-01-25T09:54:00.805Z,6.2
2018-01-25T09:55:02.470Z,9.3
2018-01-25T09:56:04.133Z,5.7
2018-01-25T09:57:05.779Z,4.0
2018-01-25T09:58:07.428Z,4.6
2018-01-25T09:59:09.079Z,6.6
2018-01-25T10:00:10.752Z,5.9
2018-01-25T10:01:12.434Z,4.5
2018-01-25T10:02:14.078Z,3.5
2018-01-25T10:03:15.753Z,3.9
2018-01-25T10:04:17.394Z,3.7
2018-01-25T10:05:19.052Z,5.8
2018-01-25T10:06:20.722Z,4.8
2018-01-25T10:07:22.377Z,3.6
2018-01-25T10:08:24.035Z,3.1
2018-01-25T10:09:25.703Z,2.5
2018-01-25T10:10:27.365Z,3.0
2018-01-25T10:11:29.030Z,3.3
2018-01-25T10:12:30.687Z,2.1
2018-01-25T10:13:32.347Z,2.3
2018-01-25T10:14:34.012Z,2.9
2018-01-25T10:15:35.711Z,3.0
2018-01-25T10:16:37.333Z,2.9
2018-01-25T10:17:39.040Z,3.0
2018-01-25T10:18:40.692Z,3.3
2018-01-25T10:19:42.899Z,2.9
2018-01-25T10:20:44.550Z,3.2
2018-01-25T10:21:46.213Z,3.5
2018-01-25T10:22:47.871Z,2.9
2018-01-25T10:23:49.538Z,3.2
2018-01-25T10:24:51.199Z,3.4
2018-01-25T10:25:52.853Z,2.8
2018-01-25T10:26:54.515Z,3.5
2018-01-25T10:27:56.170Z,3.1
2018-01-25T10:28:58.009Z,3.2
2018-01-25T10:29:59.713Z,3.2
2018-01-25T10:31:01.369Z,3.2
2018-01-25T10:32:03.034Z,4.0
2018-01-25T10:33:04.684Z,3.6
2018-01-25T10:34:06.347Z,3.1
2018-01-25T10:35:08.055Z,3.1
2018-01-25T10:36:09.663Z,3.2
2018-01-25T10:37:11.318Z,3.4
2018-01-25T10:38:12.972Z,3.4
2018-01-25T10:39:14.680Z,3.1
2018-01-25T10:40:16.465Z,2.5
2018-01-25T10:41:18.096Z,2.8
2018-01-25T10:42:19.753Z,2.8
2018-01-25T10:43:21.414Z,2.1
2018-01-25T10:44:23.080Z,3.0
2018-01-25T10:45:24.917Z,2.2
2018-01-25T10:46:26.545Z,2.7
2018-01-25T10:47:28.203Z,2.4
2018-01-25T10:48:29.861Z,2.4
2018-01-25T10:49:31.521Z,2.3
2018-01-25T10:50:33.184Z,3.7
2018-01-25T10:51:34.848Z,4.1
2018-01-25T10:52:36.509Z,2.9
2018-01-25T10:53:38.168Z,2.6
2018-01-25T10:54:39.818Z,2.6
2018-01-25T10:55:41.475Z,2.1
2018-01-25T11:01:47.413Z,2.1
2018-01-25T11:02:49.651Z,3.1
2018-01-25T11:03:51.376Z,4.1
2018-01-25T11:04:53.036Z,3.2
2018-01-25T11:05:54.695Z,3.2
2018-01-25T11:06:56.351Z,3.0
2018-01-25T11:07:57.996Z,2.4
2018-01-25T11:08:59.653Z,2.1
2018-01-25T11:10:01.312Z,2.2
2018-01-25T11:11:03.063Z,2.3
2018-01-25T11:12:04.722Z,2.4
2018-01-25T11:13:06.398Z,2.0
2018-01-25T11:14:08.048Z,2.1
2018-01-25T11:15:09.703Z,2.2
2018-01-25T11:16:11.399Z,2.3
2018-01-25T11:17:13.091Z,2.7
2018-01-25T11:18:14.732Z,2.8
2018-01-25T11:19:16.385Z,2.3
2018-01-25T11:20:18.054Z,2.2
2018-01-25T11:21:19.713Z,2.7
2018-01-25T11:22:21.366Z,3.1
2018-01-25T11:23:23.061Z,2.3
2018-01-25T11:24:24.704Z,2.5
2018-01-25T11:25:26.406Z,2.5
2018-01-25T11:26:28.057Z,2.7
2018-01-25T11:27:29.714Z,3.1
2018-01-25T11:28:31.373Z,2.4
2018-01-25T11:29:34.347Z,2.5
2018-01-25T11:30:35.790Z,2.9
2018-01-25T11:31:37.445Z,2.4
2018-01-25T11:32:39.101Z,2.5
2018-01-25T11:33:40.755Z,2.2
2018-01-25T11:34:42.436Z,2.5
2018-01-25T11:35:44.165Z,2.7
2018-01-25T11:36:45.831Z,2.9
2018-01-25T11:37:47.487Z,2.6
2018-01-25T11:38:49.186Z,2.0
2018-01-25T11:39:50.894Z,2.6
2018-01-25T11:40:52.527Z,2.4
2018-01-25T11:41:54.184Z,2.2
2018-01-25T11:42:55.853Z,3.0
2018-01-25T11:43:57.513Z,3.4
2018-01-25T11:44:59.173Z,2.7
2018-01-25T11:46:00.836Z,2.5
2018-01-25T11:47:02.505Z,2.4
2018-01-25T11:48:04.160Z,2.5
2018-01-25T11:49:05.813Z,2.2
2018-01-25T11:50:07.475Z,2.6
2018-01-25T11:51:09.135Z,2.4
2018-01-25T11:52:10.801Z,3.1
2018-01-25T11:53:12.455Z,2.8
2018-01-25T11:54:14.114Z,4.6
2018-01-25T11:55:15.784Z,3.0
2018-01-25T11:56:17.445Z,4.2
2018-01-25T11:57:19.264Z,6.4
2018-01-25T11:58:21.294Z,3.2
2018-01-25T11:59:22.929Z,4.6
2018-01-25T12:00:24.593Z,3.3
2018-01-25T12:01:26.469Z,3.3
2018-01-25T12:02:28.123Z,3.3
2018-01-25T12:03:29.782Z,4.1
2018-01-25T12:04:31.428Z,3.1
2018-01-25T12:05:33.090Z,2.3
2018-01-25T12:06:34.745Z,4.1
2018-01-25T12:07:36.433Z,4.5
2018-01-25T12:08:38.096Z,3.1
2018-01-25T12:09:39.961Z,3.7
2018-01-25T12:10:41.613Z,2.9
2018-01-25T12:11:43.290Z,3.0
2018-01-25T12:12:44.944Z,2.2
2018-01-25T12:13:46.606Z,2.4
2018-01-25T12:14:48.285Z,2.2
2018-01-25T12:15:49.945Z,2.1
2018-01-25T12:16:51.603Z,1.9
2018-01-25T12:17:53.262Z,2.5
2018-01-25T12:18:54.914Z,2.6
2018-01-25T12:19:56.574Z,2.3
2018-01-25T12:20:58.247Z,2.3
2018-01-25T12:21:59.909Z,3.1
2018-01-25T12:23:01.587Z,3.4
2018-01-25T12:24:03.315Z,3.8
2018-01-25T12:25:04.976Z,3.0
2018-01-25T12:26:07.190Z,3.2
2018-01-25T12:27:08.886Z,3.2
2018-01-25T12:28:10.548Z,3.7
2018-01-25T12:29:12.832Z,2.7
2018-01-25T12:30:14.866Z,2.9
2018-01-25T12:31:16.984Z,2.5
2018-01-25T12:32:18.647Z,2.6
2018-01-25T12:33:21.740Z,2.9
2018-01-25T12:34:23.414Z,2.7
2018-01-25T12:35:25.073Z,2.2
2018-01-25T12:36:26.744Z,3.0
2018-01-25T12:37:28.733Z,3.4
2018-01-25T12:38:30.830Z,3.0
2018-01-25T12:39:32.665Z,3.1
2018-01-25T12:40:34.710Z,3.4
2018-01-25T12:41:37.117Z,3.3
2018-01-25T12:42:39.028Z,4.0
2018-01-25T12:43:40.681Z,4.5
2018-01-25T12:44:43.196Z,3.1
2018-01-25T12:45:45.283Z,3.3
2018-01-25T12:46:46.952Z,2.8
2018-01-25T12:47:49.070Z,3.8
2018-01-25T12:48:51.223Z,4.1
2018-01-25T12:49:53.682Z,5.2
2018-01-25T12:50:55.345Z,3.4
2018-01-25T12:51:57.029Z,5.6
2018-01-25T12:52:58.681Z,4.7
2018-01-25T12:54:00.334Z,4.1
2018-01-25T12:55:01.991Z,3.9
2018-01-25T12:56:03.695Z,3.3
2018-01-25T12:57:05.375Z,2.9
2018-01-25T12:58:07.050Z,4.3
2018-01-25T12:59:08.698Z,4.5
2018-01-25T13:00:10.438Z,3.0
2018-01-25T13:01:12.103Z,3.4
2018-01-25T13:02:13.805Z,3.3
2018-01-25T13:03:15.587Z,2.8
2018-01-25T13:04:17.250Z,2.7
2018-01-25T13:05:18.905Z,2.9
2018-01-25T13:06:20.568Z,2.7
2018-01-25T13:07:22.231Z,3.6
2018-01-25T13:08:23.902Z,3.8
2018-01-25T13:09:25.558Z,3.4
2018-01-25T13:10:27.222Z,4.5
2018-01-25T13:11:28.877Z,4.7
2018-01-25T13:12:30.530Z,3.9
2018-01-25T13:13:32.185Z,5.4
2018-01-25T13:14:34.592Z,2.8
2018-01-25T13:15:36.244Z,2.8
2018-01-25T13:16:37.913Z,3.9
2018-01-25T13:17:39.575Z,3.6
2018-01-25T13:18:41.241Z,3.6
2018-01-25T13:19:42.900Z,3.2
2018-01-25T13:20:44.563Z,4.5
2018-01-25T13:21:46.226Z,4.5
2018-01-25T13:22:47.894Z,3.4
2018-01-25T13:23:49.553Z,3.7
2018-01-25T13:24:51.209Z,3.5
2018-01-25T13:25:52.875Z,3.5
2018-01-25T13:26:54.530Z,2.4
2018-01-25T13:27:56.183Z,3.0
2018-01-25T13:28:57.843Z,2.6
2018-01-25T13:29:59.516Z,2.7
2018-01-25T13:31:01.173Z,2.5
2018-01-25T13:32:02.828Z,2.3
2018-01-25T13:33:04.500Z,2.4
2018-01-25T13:34:06.193Z,2.8
2018-01-25T13:35:07.856Z,2.7
2018-01-25T13:36:09.501Z,3.0
2018-01-25T13:37:11.159Z,2.2
2018-01-25T13:38:12.841Z,2.3
2018-01-25T13:39:14.507Z,3.0
2018-01-25T13:40:16.177Z,2.8
2018-01-25T13:41:17.825Z,2.7
2018-01-25T13:42:19.486Z,2.8
2018-01-25T13:43:21.144Z,4.0
2018-01-25T13:44:22.829Z,3.6
2018-01-25T13:45:24.502Z,3.2
2018-01-25T13:46:26.146Z,2.7
2018-01-25T13:47:27.812Z,2.3
2018-01-25T13:48:29.509Z,2.4
2018-01-25T13:49:31.139Z,2.3
2018-01-25T13:50:32.789Z,2.3
2018-01-25T13:51:34.521Z,2.4
2018-01-25T13:52:36.175Z,2.3
2018-01-25T13:53:37.837Z,2.1
2018-01-25T13:54:39.498Z,2.0
2018-01-25T13:55:41.158Z,2.7
2018-01-25T13:56:42.819Z,3.0
2018-01-25T13:57:44.486Z,3.2
2018-01-25T13:58:46.137Z,3.0
2018-01-25T13:59:47.788Z,3.0
2018-01-25T14:00:49.447Z,2.3
2018-01-25T14:01:51.104Z,2.4
2018-01-25T14:02:52.762Z,2.3
2018-01-25T14:03:54.416Z,2.1
2018-01-25T14:04:56.063Z,3.1
2018-01-25T14:05:57.720Z,2.8
2018-01-25T14:06:59.382Z,2.7
2018-01-25T14:08:01.047Z,3.1
2018-01-25T14:09:02.809Z,3.5
2018-01-25T14:10:04.465Z,3.0
2018-01-25T14:11:06.128Z,3.9
2018-01-25T14:12:07.785Z,3.7
2018-01-25T14:13:09.469Z,3.6
2018-01-25T14:14:11.126Z,3.2
2018-01-25T14:15:12.785Z,3.2
2018-01-25T14:16:14.452Z,3.1
2018-01-25T14:17:16.110Z,3.0
2018-01-25T14:18:17.768Z,2.3
2018-01-25T14:19:19.435Z,4.9
2018-01-25T14:20:21.094Z,7.1
2018-01-25T14:21:22.750Z,8.8
2018-01-25T14:22:24.416Z,5.8